Time;durP1;ratioP1;P1;durP2;ratioP2;P2;SDS_P1;SDS_P2;PMS_P1;PMS_P2;Temp;Humidity;BMP_temperature;BMP_pressure;BME280_temperature;BME280_humidity;BME280_pressure;Samples;Min_cycle;Max_cycle;Signal;HPM_P1;HPM_P2
2021/01/20 00:02:03;;;;;;;40.92;16.20;;;;;;;-3.73;63.42;94403.06;5102589;27;20055;-79
2021/01/20 00:04:28;;;;;;;37.65;14.25;;;;;;;-3.76;64.31;94407.94;5121350;27;20178;-78
2021/01/20 00:06:53;;;;;;;46.92;18.13;;;;;;;-3.87;64.66;94407.59;5123529;27;20106;-77
2021/01/20 00:09:19;;;;;;;44.50;16.20;;;;;;;-3.85;64.60;94420.38;5121213;27;20023;-77
2021/01/20 00:11:44;;;;;;;36.05;16.50;;;;;;;-3.89;64.97;94404.41;5107321;28;20050;-78
2021/01/20 00:14:14;;;;;;;34.03;15.30;;;;;;;-3.83;64.95;94402.75;5099098;28;20023;-78
2021/01/20 00:16:39;;;;;;;37.60;14.77;;;;;;;-3.83;64.90;94406.16;5111933;28;20019;-78
2021/01/20 00:19:06;;;;;;;37.85;15.80;;;;;;;-3.75;64.32;94409.53;5109297;28;20414;-77
2021/01/20 00:21:32;;;;;;;37.83;15.02;;;;;;;-3.87;64.53;94412.81;5091355;28;20069;-78
2021/01/20 00:23:57;;;;;;;40.95;15.48;;;;;;;-3.87;64.64;94396.38;5101962;28;20464;-78
2021/01/20 00:26:22;;;;;;;36.60;15.60;;;;;;;-3.80;64.13;94411.97;5112279;28;20019;-78
2021/01/20 00:28:48;;;;;;;37.72;14.30;;;;;;;-3.78;64.26;94422.97;5108133;28;20543;-78
2021/01/20 00:31:13;;;;;;;32.22;12.85;;;;;;;-3.76;64.19;94418.34;5129095;27;20467;-79
2021/01/20 00:33:39;;;;;;;31.88;13.27;;;;;;;-3.78;64.65;94415.16;5113775;28;20020;-78
2021/01/20 00:36:06;;;;;;;28.80;12.75;;;;;;;-3.75;64.23;94409.53;5113286;27;20501;-78
2021/01/20 00:38:31;;;;;;;30.60;12.73;;;;;;;-3.73;64.06;94416.09;5112254;28;20027;-78
2021/01/20 00:40:56;;;;;;;39.50;14.40;;;;;;;-3.68;63.45;94418.88;5095477;28;20085;-78
2021/01/20 00:43:22;;;;;;;32.38;13.32;;;;;;;-3.65;63.77;94420.28;5091391;28;20056;-78
2021/01/20 00:45:47;;;;;;;32.17;13.20;;;;;;;-3.62;63.66;94419.88;5091823;28;20093;-78
2021/01/20 00:48:13;;;;;;;34.80;12.50;;;;;;;-3.60;63.51;94412.63;5109900;28;20478;-78
2021/01/20 00:50:39;;;;;;;31.17;11.95;;;;;;;-3.51;63.38;94426.19;5109082;28;20101;-80
2021/01/20 00:53:04;;;;;;;24.23;11.20;;;;;;;-3.47;62.98;94422.16;5101050;28;20031;-79
2021/01/20 00:55:30;;;;;;;26.15;11.15;;;;;;;-3.41;62.79;94410.09;5104706;28;20072;-79
2021/01/20 00:57:55;;;;;;;22.48;10.05;;;;;;;-3.44;62.65;94422.53;5100607;28;20081;-79
2021/01/20 01:00:21;;;;;;;23.80;9.68;;;;;;;-3.40;62.56;94416.88;5110280;28;20023;-79
2021/01/20 01:02:47;;;;;;;31.15;10.48;;;;;;;-3.36;62.36;94418.06;5108590;28;20487;-79
2021/01/20 01:05:12;;;;;;;23.42;10.30;;;;;;;-3.36;62.30;94426.66;5099936;28;20126;-79
2021/01/20 01:07:38;;;;;;;32.97;11.63;;;;;;;-3.37;62.29;94427.69;5103247;28;20470;-79
2021/01/20 01:10:05;;;;;;;24.25;11.02;;;;;;;-3.36;62.15;94408.41;5115608;27;20024;-79
2021/01/20 01:12:32;;;;;;;23.27;11.18;;;;;;;-3.40;62.14;94409.06;5121185;27;20026;-79
2021/01/20 01:14:58;;;;;;;22.05;10.38;;;;;;;-3.39;62.18;94424.50;5105895;28;20030;-79
2021/01/20 01:17:24;;;;;;;24.88;10.18;;;;;;;-3.37;61.27;94434.72;5107264;27;20016;-79
2021/01/20 01:19:49;;;;;;;29.30;11.18;;;;;;;-3.49;61.66;94422.34;5128577;27;20108;-79
2021/01/20 01:22:15;;;;;;;22.40;10.45;;;;;;;-3.57;61.99;94414.81;5105939;28;20474;-79
2021/01/20 01:24:40;;;;;;;22.90;10.70;;;;;;;-3.55;62.23;94397.16;5104543;28;20095;-79
2021/01/20 01:27:06;;;;;;;26.23;10.98;;;;;;;-3.55;62.42;94414.59;5131850;27;20439;-79
2021/01/20 01:29:31;;;;;;;17.80;10.18;;;;;;;-3.52;62.21;94420.19;5109341;27;20119;-79
2021/01/20 01:31:57;;;;;;;24.63;10.57;;;;;;;-3.56;62.19;94400.78;5109754;27;20027;-79
2021/01/20 01:34:22;;;;;;;27.77;10.45;;;;;;;-3.58;62.28;94413.22;5101767;28;20020;-79
2021/01/20 01:36:48;;;;;;;25.38;10.50;;;;;;;-3.55;61.99;94389.34;5107647;27;20030;-79
2021/01/20 01:39:16;;;;;;;24.25;10.77;;;;;;;-3.59;62.08;94393.38;5122080;27;20355;-76
2021/01/20 01:41:42;;;;;;;20.92;9.80;;;;;;;-3.58;62.01;94379.34;5108057;27;20143;-76
2021/01/20 01:44:08;;;;;;;25.23;11.45;;;;;;;-3.58;61.76;94386.34;5107722;27;20020;-77
2021/01/20 01:46:34;;;;;;;34.50;13.85;;;;;;;-3.64;61.85;94385.41;5098552;27;20023;-77
2021/01/20 01:48:59;;;;;;;31.38;12.95;;;;;;;-3.65;61.54;94389.78;5109602;27;20103;-77
2021/01/20 01:51:26;;;;;;;27.48;12.30;;;;;;;-3.71;62.07;94387.25;5100227;27;20452;-77
2021/01/20 01:53:53;;;;;;;30.33;11.82;;;;;;;-3.74;61.82;94374.66;5119019;27;20062;-76
2021/01/20 01:56:18;;;;;;;37.78;12.07;;;;;;;-3.76;62.03;94377.47;5113712;27;20019;-76
2021/01/20 01:58:47;;;;;;;29.60;11.35;;;;;;;-3.75;62.38;94405.09;5124846;27;20430;-76
2021/01/20 02:01:13;;;;;;;28.35;11.85;;;;;;;-3.74;61.97;94405.91;5107741;27;20462;-76
2021/01/20 02:03:38;;;;;;;30.15;11.70;;;;;;;-3.79;62.16;94395.31;5113430;27;20055;-76
2021/01/20 02:06:04;;;;;;;27.73;11.48;;;;;;;-3.84;61.87;94409.78;5098044;27;20114;-73
2021/01/20 02:08:31;;;;;;;28.88;12.15;;;;;;;-3.88;61.96;94400.78;5132156;27;20016;-73
2021/01/20 02:11:06;;;;;;;29.58;12.18;;;;;;;-3.92;62.14;94401.41;5109087;27;20047;-75
2021/01/20 02:13:51;;;;;;;34.83;12.25;;;;;;;-3.97;62.39;94402.03;5105132;27;20544;-73
2021/01/20 02:16:23;;;;;;;31.05;12.75;;;;;;;-3.96;62.24;94388.00;5114861;27;20099;-73
2021/01/20 02:18:51;;;;;;;32.47;12.30;;;;;;;-4.04;62.70;94399.47;5104823;27;20026;-74
2021/01/20 02:21:35;;;;;;;29.20;12.80;;;;;;;-4.01;62.73;94402.66;5123460;27;20596;-72
2021/01/20 02:24:10;;;;;;;28.65;11.27;;;;;;;-4.03;62.81;94397.66;5126420;27;20024;-72
2021/01/20 02:27:20;;;;;;;28.00;12.30;;;;;;;-4.01;62.84;94393.03;5120137;27;20024;-72
2021/01/20 02:30:05;;;;;;;28.02;11.60;;;;;;;-4.00;62.63;94392.03;5114962;27;20042;-72
2021/01/20 02:32:32;;;;;;;38.17;14.40;;;;;;;-4.00;62.71;94396.47;5115543;27;20112;-72
2021/01/20 02:34:59;;;;;;;27.13;12.45;;;;;;;-3.98;62.70;94399.66;5107491;27;20023;-72
2021/01/20 02:37:25;;;;;;;28.42;11.52;;;;;;;-3.94;62.29;94393.00;5125947;27;20037;-72
2021/01/20 02:39:52;;;;;;;23.25;11.15;;;;;;;-3.94;62.12;94380.00;5117835;27;20107;-72
2021/01/20 02:42:18;;;;;;;27.80;11.73;;;;;;;-3.96;62.11;94388.00;5127930;27;20443;-72
2021/01/20 02:44:45;;;;;;;24.25;11.35;;;;;;;-3.97;62.25;94390.81;5122251;27;20030;-72
2021/01/20 02:47:11;;;;;;;31.70;12.45;;;;;;;-3.97;62.48;94385.59;5118624;27;20095;-71
2021/01/20 02:49:37;;;;;;;20.27;9.73;;;;;;;-3.89;62.26;94393.16;5117938;27;20470;-72
2021/01/20 02:52:21;;;;;;;23.77;9.30;;;;;;;-3.90;61.92;94384.56;5119347;27;20485;-72
2021/01/20 02:54:49;;;;;;;23.80;9.23;;;;;;;-3.94;62.01;94399.00;5123450;27;20035;-72
2021/01/20 02:57:16;;;;;;;22.88;9.60;;;;;;;-3.94;62.06;94400.81;5109026;27;20072;-72
2021/01/20 02:59:45;;;;;;;24.25;10.95;;;;;;;-4.00;62.02;94388.66;5109412;28;20092;-72
2021/01/20 03:02:14;;;;;;;22.85;9.27;;;;;;;-3.98;62.29;94390.03;5121535;27;20026;-72
2021/01/20 03:04:45;;;;;;;20.85;9.65;;;;;;;-3.97;62.16;94396.81;5112032;27;20099;-72
2021/01/20 03:07:11;;;;;;;24.13;10.37;;;;;;;-3.93;61.92;94399.81;5114762;27;20077;-72
2021/01/20 03:09:37;;;;;;;26.40;11.20;;;;;;;-3.91;61.72;94387.38;5118553;27;20019;-72
2021/01/20 03:12:04;;;;;;;25.92;10.48;;;;;;;-3.91;62.04;94382.97;5118517;27;20407;-73
2021/01/20 03:14:31;;;;;;;24.02;10.32;;;;;;;-3.96;62.05;94385.41;5123628;27;20034;-72
2021/01/20 03:16:56;;;;;;;20.55;9.95;;;;;;;-3.94;62.04;94393.81;5122423;27;20023;-72
2021/01/20 03:19:22;;;;;;;26.38;10.55;;;;;;;-3.94;61.72;94385.19;5122017;27;20342;-72
2021/01/20 03:21:47;;;;;;;21.23;9.15;;;;;;;-3.99;61.82;94382.41;5097391;28;20024;-72
2021/01/20 03:24:13;;;;;;;28.77;12.00;;;;;;;-4.03;62.21;94361.19;5106028;28;20075;-72
2021/01/20 03:26:38;;;;;;;29.80;11.90;;;;;;;-4.02;62.31;94383.63;5117938;28;20387;-72
2021/01/20 03:29:03;;;;;;;30.45;11.85;;;;;;;-3.99;62.47;94392.84;5122441;28;20092;-74
2021/01/20 03:31:29;;;;;;;27.92;9.90;;;;;;;-4.05;62.29;94394.47;5114663;28;20034;-72
2021/01/20 03:33:54;;;;;;;26.40;10.95;;;;;;;-4.00;62.31;94397.25;5099075;28;20547;-72
2021/01/20 03:36:20;;;;;;;27.73;11.68;;;;;;;-3.95;62.11;94380.97;5104163;28;20019;-73
2021/01/20 03:38:45;;;;;;;24.52;10.63;;;;;;;-3.93;62.26;94377.19;5103754;28;20088;-73
2021/01/20 03:41:11;;;;;;;26.15;9.68;;;;;;;-3.87;61.96;94391.97;5098948;27;20050;-74
2021/01/20 03:43:36;;;;;;;21.15;9.35;;;;;;;-3.88;61.73;94400.78;5122590;27;20046;-73
2021/01/20 03:46:02;;;;;;;28.35;9.57;;;;;;;-3.84;61.64;94390.75;5111669;28;20518;-73
2021/01/20 03:48:27;;;;;;;27.95;9.23;;;;;;;-3.83;61.38;94382.72;5126076;28;20027;-73
2021/01/20 03:50:53;;;;;;;25.15;10.23;;;;;;;-3.78;61.22;94389.91;5103615;28;20019;-73
2021/01/20 03:53:18;;;;;;;28.88;12.68;;;;;;;-3.73;61.23;94386.66;5099294;28;20505;-73
2021/01/20 03:55:44;;;;;;;32.15;11.98;;;;;;;-3.76;61.24;94398.31;5111942;27;20474;-73
2021/01/20 03:58:10;;;;;;;30.80;11.07;;;;;;;-3.74;61.38;94393.69;5114824;28;20023;-73
2021/01/20 04:00:35;;;;;;;30.17;10.60;;;;;;;-3.77;61.03;94401.13;5104413;28;20024;-73
2021/01/20 04:03:00;;;;;;;25.80;9.38;;;;;;;-3.73;60.95;94397.88;5104795;28;20034;-73
2021/01/20 04:05:26;;;;;;;22.92;9.23;;;;;;;-3.73;61.32;94397.88;5110283;28;20027;-74
2021/01/20 04:07:51;;;;;;;25.20;10.55;;;;;;;-3.74;61.38;94388.47;5105605;28;20042;-74
2021/01/20 04:10:17;;;;;;;25.08;9.38;;;;;;;-3.67;60.94;94404.06;5112477;28;20027;-75
2021/01/20 04:12:42;;;;;;;23.88;9.02;;;;;;;-3.69;61.08;94399.03;5113816;28;20410;-75
2021/01/20 04:15:09;;;;;;;19.70;9.05;;;;;;;-3.67;61.07;94386.59;5097818;28;20378;-74
2021/01/20 04:17:37;;;;;;;23.95;8.25;;;;;;;-3.60;61.02;94393.56;5111678;28;20609;-74
2021/01/20 04:20:05;;;;;;;19.00;8.88;;;;;;;-3.56;60.73;94385.16;5103780;28;20119;-74
2021/01/20 04:22:31;;;;;;;24.35;8.80;;;;;;;-3.50;60.73;94401.72;5122435;27;20054;-74
2021/01/20 04:24:56;;;;;;;17.48;8.65;;;;;;;-3.55;60.81;94397.16;5115250;27;20567;-73
2021/01/20 04:27:21;;;;;;;17.00;8.23;;;;;;;-3.50;60.79;94397.31;5111273;27;20076;-74
2021/01/20 04:29:47;;;;;;;25.25;8.50;;;;;;;-3.39;60.81;94410.69;5108728;27;20023;-75
2021/01/20 04:32:12;;;;;;;16.23;8.40;;;;;;;-3.54;60.85;94405.75;5105280;27;20030;-75
2021/01/20 04:34:38;;;;;;;28.08;9.20;;;;;;;-3.51;60.90;94400.13;5097592;28;20027;-75
2021/01/20 04:37:04;;;;;;;21.48;8.93;;;;;;;-3.52;60.58;94428.00;5124669;27;20547;-75
2021/01/20 04:39:29;;;;;;;20.70;8.98;;;;;;;-3.56;60.80;94419.03;5094827;28;20028;-75
2021/01/20 04:41:55;;;;;;;16.95;8.55;;;;;;;-3.57;61.29;94425.22;5106059;27;20027;-75
2021/01/20 04:44:20;;;;;;;21.17;8.95;;;;;;;-3.55;61.02;94419.81;5097668;28;20475;-74
2021/01/20 04:46:47;;;;;;;25.48;9.45;;;;;;;-3.54;61.45;94413.56;5105819;28;20037;-74
2021/01/20 04:49:14;;;;;;;21.92;8.60;;;;;;;-3.50;60.93;94439.03;5125204;27;20139;-74
2021/01/20 04:51:41;;;;;;;26.00;10.13;;;;;;;-3.57;60.77;94445.28;5133381;27;20439;-74
2021/01/20 04:54:09;;;;;;;22.77;10.10;;;;;;;-3.58;60.90;94433.25;5114293;27;20039;-75
2021/01/20 04:56:35;;;;;;;28.77;10.18;;;;;;;-3.52;61.18;94443.66;5109253;27;20027;-74
2021/01/20 04:59:01;;;;;;;25.35;10.23;;;;;;;-3.49;60.58;94440.59;5113332;27;20482;-75
2021/01/20 05:01:27;;;;;;;22.52;10.35;;;;;;;-3.52;60.76;94438.44;5126098;27;20083;-75
2021/01/20 05:03:53;;;;;;;26.52;14.02;;;;;;;-3.54;60.92;94458.69;5111347;28;20512;-74
2021/01/20 05:06:19;;;;;;;23.38;12.10;;;;;;;-3.51;60.93;94457.47;5132927;27;20031;-74
2021/01/20 05:08:44;;;;;;;26.58;11.27;;;;;;;-3.52;60.83;94472.31;5126266;27;20027;-74
2021/01/20 05:11:09;;;;;;;23.65;11.48;;;;;;;-3.46;60.50;94455.00;5111143;27;20056;-74
2021/01/20 05:13:35;;;;;;;21.15;9.57;;;;;;;-3.44;60.56;94458.22;5099484;27;20026;-74
2021/01/20 05:16:00;;;;;;;24.23;10.25;;;;;;;-3.36;60.42;94480.63;5113944;27;20406;-74
2021/01/20 05:18:26;;;;;;;25.85;8.98;;;;;;;-3.34;59.79;94489.03;5124531;27;20473;-74
2021/01/20 05:20:52;;;;;;;28.02;10.18;;;;;;;-3.40;60.11;94461.19;5099773;28;20019;-74
2021/01/20 05:23:25;;;;;;;24.02;10.40;;;;;;;-3.38;60.14;94477.44;5128366;27;20024;-74
2021/01/20 05:25:50;;;;;;;24.63;10.07;;;;;;;-3.40;60.34;94453.38;5110119;27;20100;-73
2021/01/20 05:28:28;;;;;;;26.30;10.80;;;;;;;-3.39;60.69;94481.06;5117867;27;20024;-73
2021/01/20 05:30:58;;;;;;;24.65;10.02;;;;;;;-3.34;59.98;94465.56;5096028;27;20106;-73
2021/01/20 05:33:29;;;;;;;21.42;8.93;;;;;;;-3.39;60.70;94465.41;5120893;27;20390;-73
2021/01/20 05:36:12;;;;;;;25.63;10.50;;;;;;;-3.40;60.75;94454.16;5123025;27;20023;-72
2021/01/20 05:38:42;;;;;;;24.42;9.63;;;;;;;-3.36;60.46;94481.41;5102517;28;20155;-71
2021/01/20 05:41:20;;;;;;;24.10;9.00;;;;;;;-3.29;60.30;94470.97;5093601;28;20040;-71
2021/01/20 05:43:48;;;;;;;22.52;9.65;;;;;;;-3.25;60.70;94464.31;5099111;28;20392;-72
2021/01/20 05:46:13;;;;;;;34.15;12.15;;;;;;;-3.20;59.84;94469.66;5124543;27;20067;-71
2021/01/20 05:48:48;;;;;;;25.75;10.88;;;;;;;-3.16;60.09;94480.47;5120626;27;20068;-71
2021/01/20 05:51:14;;;;;;;24.98;11.82;;;;;;;-3.11;60.35;94480.66;5118400;27;20023;-71
2021/01/20 05:53:56;;;;;;;30.73;12.15;;;;;;;-3.12;60.17;94477.22;5110111;28;20026;-72
2021/01/20 05:56:26;;;;;;;32.85;11.75;;;;;;;-3.03;59.74;94486.41;5093135;28;20036;-72
2021/01/20 05:58:51;;;;;;;22.77;10.82;;;;;;;-3.09;59.78;94484.63;5093060;28;20596;-72
2021/01/20 06:01:17;;;;;;;24.13;9.95;;;;;;;-3.07;59.36;94498.28;5111472;28;20062;-72
2021/01/20 06:03:44;;;;;;;22.33;9.45;;;;;;;-3.00;59.54;94485.16;5092999;28;20028;-72
2021/01/20 06:06:10;;;;;;;24.55;10.10;;;;;;;-2.98;59.77;94467.50;5111292;28;20220;-72
2021/01/20 06:08:36;;;;;;;21.92;9.02;;;;;;;-2.94;59.29;94499.97;5091868;27;20024;-72
2021/01/20 06:11:03;;;;;;;20.83;9.60;;;;;;;-2.89;59.25;94475.84;5111445;27;20055;-72
2021/01/20 06:13:28;;;;;;;26.30;9.43;;;;;;;-2.84;59.52;94505.50;5092451;28;20506;-71
2021/01/20 06:15:57;;;;;;;28.42;12.40;;;;;;;-2.85;59.17;94487.44;5095380;27;20047;-72
2021/01/20 06:18:25;;;;;;;30.98;14.25;;;;;;;-2.80;59.55;94476.38;5101965;27;20023;-72
2021/01/20 06:20:54;;;;;;;37.25;14.25;;;;;;;-2.78;59.42;94477.75;5110707;28;20023;-72
2021/01/20 06:23:25;;;;;;;30.63;12.40;;;;;;;-2.69;59.25;94486.09;5098461;27;20117;-72
2021/01/20 06:26:13;;;;;;;35.67;16.73;;;;;;;-2.64;58.86;94484.44;5105349;27;20023;-72
2021/01/20 06:28:45;;;;;;;31.02;13.00;;;;;;;-2.60;58.63;94484.03;5112715;27;20038;-72
2021/01/20 06:31:12;;;;;;;29.92;10.82;;;;;;;-2.55;58.44;94500.63;5112519;27;20066;-72
2021/01/20 06:33:38;;;;;;;28.30;10.95;;;;;;;-2.52;58.37;94483.75;5110017;27;20084;-72
2021/01/20 06:36:03;;;;;;;23.95;9.45;;;;;;;-2.46;58.03;94491.50;5116306;27;20027;-72
2021/01/20 06:38:29;;;;;;;23.42;9.73;;;;;;;-2.40;58.10;94499.47;5128580;27;20186;-72
2021/01/20 06:40:58;;;;;;;24.30;9.68;;;;;;;-2.39;57.86;94496.66;5104786;27;20027;-71
2021/01/20 06:43:41;;;;;;;19.02;10.55;;;;;;;-2.40;58.18;94517.75;5112004;27;20164;-71
2021/01/20 06:46:19;;;;;;;28.73;10.27;;;;;;;-2.38;57.90;94511.31;5115859;27;20058;-71
2021/01/20 06:48:53;;;;;;;22.30;10.25;;;;;;;-2.37;58.09;94522.56;5130310;27;20126;-72
2021/01/20 06:51:21;;;;;;;19.85;9.65;;;;;;;-2.33;58.14;94511.47;5117791;27;20423;-73
2021/01/20 06:54:01;;;;;;;23.48;9.55;;;;;;;-2.39;58.02;94512.31;5091355;28;20044;-73
2021/01/20 06:56:55;;;;;;;18.98;9.20;;;;;;;-2.32;57.88;94513.06;5109645;27;20054;-73
2021/01/20 06:59:32;;;;;;;17.02;9.75;;;;;;;-2.25;57.75;94518.22;5103038;28;20443;-74
2021/01/20 07:02:04;;;;;;;20.17;8.23;;;;;;;-2.15;57.63;94504.66;5103343;27;20447;-70
2021/01/20 07:04:38;;;;;;;22.83;9.60;;;;;;;-2.06;57.03;94530.25;5111807;27;20027;-70
2021/01/20 07:07:05;;;;;;;23.20;10.20;;;;;;;-2.12;56.91;94517.28;5114813;27;20036;-74
2021/01/20 07:10:07;;;;;;;21.10;9.73;;;;;;;-2.03;56.35;94521.19;5097696;27;20402;-73
2021/01/20 07:12:32;;;;;;;20.42;9.70;;;;;;;-2.06;56.73;94537.28;5018393;28;20559;-74
2021/01/20 07:15:04;;;;;;;18.67;9.55;;;;;;;-1.95;56.55;94548.84;5076279;27;20163;-72
2021/01/20 07:17:33;;;;;;;;;;;;;;;-1.88;56.75;94563.41;5126536;27;20554;-74
2021/01/20 07:19:58;;;;;;;32.03;8.80;;;;;;;-2.09;57.00;94545.59;5113715;27;20386;-75
2021/01/20 07:22:24;;;;;;;21.38;10.93;;;;;;;-1.92;56.67;94564.88;5113025;28;20103;-72
2021/01/20 07:24:50;;;;;;;18.67;9.85;;;;;;;-1.79;56.45;94563.13;5106099;28;20031;-70
2021/01/20 07:27:17;;;;;;;26.17;10.20;;;;;;;-1.69;56.46;94539.88;5111744;28;20026;-72
2021/01/20 07:29:42;;;;;;;18.25;8.02;;;;;;;-1.75;56.21;94569.50;5129881;27;20019;-71
2021/01/20 07:32:08;;;;;;;19.90;9.57;;;;;;;-1.70;55.98;94546.16;5115344;27;20023;-71
2021/01/20 07:34:41;;;;;;;24.35;10.15;;;;;;;-1.54;55.43;94571.69;5113805;28;20068;-71
2021/01/20 07:37:10;;;;;;;20.40;9.82;;;;;;;-1.43;55.22;94536.94;5091339;28;20393;-70
2021/01/20 07:39:36;;;;;;;24.10;10.43;;;;;;;-1.37;55.19;94573.69;5116081;28;20084;-71
2021/01/20 07:42:03;;;;;;;27.67;9.48;;;;;;;-1.34;54.45;94555.75;5101982;28;20401;-70
2021/01/20 07:44:28;;;;;;;26.90;10.48;;;;;;;-1.32;54.40;94526.75;5125316;28;20026;-70
2021/01/20 07:47:09;;;;;;;20.20;9.82;;;;;;;-1.37;54.79;94566.63;5125036;27;20024;-70
2021/01/20 07:49:35;;;;;;;24.83;9.65;;;;;;;-1.58;55.88;94570.53;5102537;28;20030;-70
2021/01/20 07:52:03;;;;;;;24.52;11.05;;;;;;;-1.45;55.19;94585.25;5118215;27;20038;-71
2021/01/20 07:54:48;;;;;;;25.05;11.07;;;;;;;-1.28;54.92;94575.00;5091387;28;20055;-71
2021/01/20 07:57:21;;;;;;;30.80;13.90;;;;;;;-1.12;55.09;94569.16;5113537;28;20020;-71
2021/01/20 08:00:02;;;;;;;49.15;15.32;;;;;;;-1.04;54.74;94563.59;5117434;27;20038;-70
2021/01/20 08:02:27;;;;;;;29.60;13.65;;;;;;;-0.94;54.40;94583.19;5128766;27;20110;-70
2021/01/20 08:05:02;;;;;;;33.83;14.82;;;;;;;-0.84;54.30;94580.81;5125404;27;20023;-70
2021/01/20 08:07:28;;;;;;;31.20;12.95;;;;;;;-0.82;53.80;94578.78;5122912;27;20023;-70
2021/01/20 08:09:53;;;;;;;23.67;10.68;;;;;;;-0.77;53.71;94563.19;5099195;28;20110;-70
2021/01/20 08:12:26;;;;;;;19.95;10.18;;;;;;;-0.69;53.12;94589.06;5103852;27;20130;-69
2021/01/20 08:14:52;;;;;;;24.58;9.75;;;;;;;-0.63;52.94;94569.03;5120345;27;20028;-70
2021/01/20 08:17:19;;;;;;;19.75;9.82;;;;;;;-0.62;52.94;94566.16;5120450;27;20042;-69
2021/01/20 08:19:46;;;;;;;26.17;11.32;;;;;;;-0.58;52.61;94574.38;5124488;27;20150;-70
2021/01/20 08:22:14;;;;;;;26.83;10.68;;;;;;;-0.62;51.77;94568.78;5125989;27;20031;-70
2021/01/20 08:24:51;;;;;;;20.52;9.63;;;;;;;-0.50;52.25;94562.78;5121954;27;20026;-69
2021/01/20 08:27:27;;;;;;;26.13;9.88;;;;;;;-0.36;52.06;94560.75;5130013;27;20413;-70
2021/01/20 08:29:58;;;;;;;21.42;8.98;;;;;;;-0.25;51.83;94568.59;5126983;27;20019;-70
2021/01/20 08:32:24;;;;;;;29.87;10.53;;;;;;;-0.14;51.61;94566.19;5105649;27;20023;-69
2021/01/20 08:34:51;;;;;;;25.98;10.95;;;;;;;-0.13;51.54;94554.69;5123538;27;20031;-69
2021/01/20 08:37:18;;;;;;;21.17;9.73;;;;;;;-0.08;51.53;94545.13;5105086;28;20427;-69
2021/01/20 08:39:55;;;;;;;24.67;9.43;;;;;;;0.01;51.58;94571.00;5124426;27;20024;-69
2021/01/20 08:42:30;;;;;;;20.65;8.90;;;;;;;0.12;50.98;94560.50;5124461;27;20475;-70
2021/01/20 08:45:07;;;;;;;23.63;9.25;;;;;;;0.26;50.93;94568.09;5129297;27;20624;-69
2021/01/20 08:48:06;;;;;;;24.52;9.60;;;;;;;0.37;50.13;94562.03;5118834;27;20482;-69
2021/01/20 08:50:43;;;;;;;20.10;10.00;;;;;;;0.45;49.98;94556.44;5109010;27;20045;-69
2021/01/20 08:53:11;;;;;;;23.60;9.18;;;;;;;0.51;49.88;94560.75;5117028;27;20058;-68
2021/01/20 08:55:40;;;;;;;26.42;14.45;;;;;;;0.63;49.86;94583.50;5118118;27;20617;-69
2021/01/20 08:58:29;;;;;;;19.27;9.18;;;;;;;0.67;49.66;94553.97;5120805;27;20090;-70
2021/01/20 09:00:56;;;;;;;18.75;9.63;;;;;;;0.73;49.48;94566.16;5125343;27;20054;-69
2021/01/20 09:03:27;;;;;;;22.02;9.75;;;;;;;0.80;49.43;94566.81;5123174;27;20027;-71
2021/01/20 09:05:54;;;;;;;21.20;9.07;;;;;;;0.76;48.63;94557.81;5119575;27;20134;-69
2021/01/20 09:08:22;;;;;;;26.30;10.80;;;;;;;0.89;48.58;94569.06;5099204;27;20081;-70
2021/01/20 09:10:47;;;;;;;28.52;9.15;;;;;;;1.03;48.63;94572.97;5115042;27;20192;-69
2021/01/20 09:13:14;;;;;;;26.60;10.10;;;;;;;1.11;48.34;94564.72;5094974;28;20386;-71
2021/01/20 09:15:39;;;;;;;23.13;9.48;;;;;;;1.24;47.68;94571.50;5106086;28;20038;-70
2021/01/20 09:18:08;;;;;;;27.88;9.95;;;;;;;1.37;47.75;94571.22;5104356;28;20024;-70
2021/01/20 09:20:34;;;;;;;22.27;9.57;;;;;;;1.47;47.44;94572.41;5098819;28;20139;-70
2021/01/20 09:23:01;;;;;;;19.40;9.13;;;;;;;1.53;46.81;94572.25;5094816;28;20032;-70
2021/01/20 09:25:26;;;;;;;21.67;8.90;;;;;;;1.62;47.05;94567.38;5102424;28;20043;-69
2021/01/20 09:27:52;;;;;;;31.92;10.43;;;;;;;1.77;47.00;94561.56;5102133;28;20489;-70
2021/01/20 09:30:17;;;;;;;24.52;9.55;;;;;;;1.90;46.54;94555.97;5096323;28;20035;-70
2021/01/20 09:32:43;;;;;;;21.02;9.23;;;;;;;2.04;45.63;94559.06;5098737;28;20024;-69
2021/01/20 09:35:11;;;;;;;30.95;12.07;;;;;;;2.18;45.92;94541.91;5106889;28;20028;-69
2021/01/20 09:37:39;;;;;;;27.45;10.00;;;;;;;2.34;45.58;94540.28;5099657;28;20028;-69
2021/01/20 09:40:07;;;;;;;25.08;9.00;;;;;;;2.35;45.21;94538.44;5091158;28;20032;-69
2021/01/20 09:42:34;;;;;;;42.17;9.02;;;;;;;2.52;45.01;94519.94;5109160;28;20020;-70
2021/01/20 09:45:00;;;;;;;34.97;10.63;;;;;;;2.69;44.52;94511.97;5098810;28;20351;-69
2021/01/20 09:47:25;;;;;;;25.50;9.80;;;;;;;2.83;43.60;94528.97;5093339;28;20024;-70
2021/01/20 09:49:50;;;;;;;31.75;9.95;;;;;;;2.88;43.84;94513.22;5102134;28;20087;-70
2021/01/20 09:52:17;;;;;;;46.60;11.68;;;;;;;3.00;43.56;94516.50;5105365;28;20039;-69
2021/01/20 09:54:43;;;;;;;22.67;9.90;;;;;;;3.11;43.40;94519.22;5098916;28;20023;-69
2021/01/20 09:57:08;;;;;;;21.65;9.63;;;;;;;3.23;43.34;94522.47;5104374;28;20513;-69
2021/01/20 09:59:34;;;;;;;29.42;10.63;;;;;;;3.27;43.12;94505.13;5096909;28;20031;-68
2021/01/20 10:01:59;;;;;;;23.75;8.98;;;;;;;3.31;42.99;94505.44;5094042;28;20073;-70
2021/01/20 10:04:25;;;;;;;18.00;8.73;;;;;;;3.24;43.02;94505.66;5105371;28;20049;-69
2021/01/20 10:06:51;;;;;;;21.27;10.52;;;;;;;3.29;43.17;94499.63;5100648;28;20502;-69
2021/01/20 10:09:16;;;;;;;25.58;10.75;;;;;;;3.36;43.18;94487.03;5106295;28;20421;-69
2021/01/20 10:11:43;;;;;;;37.65;11.43;;;;;;;3.46;44.76;94486.31;5120876;27;20047;-70
2021/01/20 10:14:08;;;;;;;30.60;10.95;;;;;;;3.55;43.43;94484.78;5123072;27;20114;-69
2021/01/20 10:16:34;;;;;;;19.95;9.45;;;;;;;3.55;42.94;94484.78;5101619;27;20332;-69
2021/01/20 10:18:59;;;;;;;28.95;11.80;;;;;;;3.46;42.41;94481.84;5123350;27;20027;-73
2021/01/20 10:21:24;;;;;;;29.23;11.98;;;;;;;3.44;42.89;94467.31;5115971;27;20031;-68
2021/01/20 10:23:50;;;;;;;26.38;11.52;;;;;;;3.45;43.10;94471.53;5125844;27;20106;-69
2021/01/20 10:26:15;;;;;;;30.95;11.07;;;;;;;3.49;42.92;94475.25;5116075;27;20031;-75
2021/01/20 10:28:43;;;;;;;37.17;11.90;;;;;;;3.66;42.04;94490.91;5100398;27;20465;-75
2021/01/20 10:31:09;;;;;;;28.67;12.32;;;;;;;3.45;42.30;94476.81;5113800;27;20030;-75
2021/01/20 10:33:36;;;;;;;50.83;13.50;;;;;;;3.37;43.22;94484.13;5096483;28;20031;-75
2021/01/20 10:36:02;;;;;;;28.95;11.90;;;;;;;3.64;43.05;94464.81;5103046;27;20099;-75
2021/01/20 10:38:27;;;;;;;23.08;12.40;;;;;;;3.85;43.05;94468.38;5128131;27;20553;-75
2021/01/20 10:40:53;;;;;;;30.88;14.52;;;;;;;4.05;42.10;94466.88;5118378;27;20355;-75
2021/01/20 10:43:18;;;;;;;26.90;13.63;;;;;;;4.14;41.99;94463.50;5111808;28;20062;-75
2021/01/20 10:45:44;;;;;;;39.13;14.35;;;;;;;4.30;41.76;94460.94;5109696;27;20037;-75
2021/01/20 10:48:10;;;;;;;38.30;14.68;;;;;;;4.43;41.51;94463.06;5130670;27;20031;-75
2021/01/20 10:50:35;;;;;;;28.13;13.80;;;;;;;4.57;41.38;94469.44;5111752;28;20474;-75
2021/01/20 10:53:00;;;;;;;34.90;14.88;;;;;;;4.67;41.25;94454.69;5111498;28;20022;-75
2021/01/20 10:55:26;;;;;;;37.20;12.82;;;;;;;4.81;40.59;94471.63;5114341;27;20455;-74
2021/01/20 10:57:51;;;;;;;37.10;12.60;;;;;;;4.85;40.49;94464.75;5119751;27;20023;-74
2021/01/20 11:00:18;;;;;;;30.55;12.75;;;;;;;4.97;40.07;94459.25;5125395;27;20098;-74
2021/01/20 11:02:44;;;;;;;32.92;13.98;;;;;;;5.09;39.70;94458.97;5127440;27;20224;-74
2021/01/20 11:05:25;;;;;;;47.53;14.18;;;;;;;5.20;40.18;94445.50;5120270;27;20235;-74
2021/01/20 11:07:50;;;;;;;35.63;15.55;;;;;;;5.34;39.47;94466.13;5112598;27;20034;-75
2021/01/20 11:10:15;;;;;;;35.40;14.43;;;;;;;5.47;39.60;94452.34;5130403;27;20023;-76
2021/01/20 11:12:41;;;;;;;48.83;15.32;;;;;;;5.69;39.46;94446.78;5102075;27;20043;-76
2021/01/20 11:15:07;;;;;;;36.95;14.90;;;;;;;5.87;38.70;94442.00;5130281;27;20031;-76
2021/01/20 11:17:32;;;;;;;45.78;14.35;;;;;;;6.05;38.36;94444.06;5112996;27;20011;-77
2021/01/20 11:19:58;;;;;;;37.60;15.07;;;;;;;6.19;38.36;94434.50;5100809;28;20059;-77
2021/01/20 11:22:23;;;;;;;44.00;15.55;;;;;;;6.35;38.00;94437.06;5099522;28;20070;-76
2021/01/20 11:24:58;;;;;;;47.63;15.10;;;;;;;6.51;37.93;94441.22;5128725;27;20023;-76
2021/01/20 11:27:23;;;;;;;36.85;14.90;;;;;;;6.70;37.32;94417.56;5125668;28;20104;-76